sensor_id;sensor_type;location;lat;lon;timestamp;pressure;altitude;pressure_sealevel;temperature;humidity
59274;BME280;45044;41.572;24.730;2022-09-17T00:00:48;90830.09;;;15.12;100.00
59274;BME280;45044;41.572;24.730;2022-09-17T00:03:16;90820.50;;;15.02;100.00
59274;BME280;45044;41.572;24.730;2022-09-17T00:05:43;90831.31;;;14.91;100.00
59274;BME280;45044;41.572;24.730;2022-09-17T00:08:11;90819.34;;;14.86;100.00
59274;BME280;45044;41.572;24.730;2022-09-17T00:10:43;90826.38;;;14.72;100.00
59274;BME280;45044;41.572;24.730;2022-09-17T00:13:10;90824.97;;;14.88;100.00
59274;BME280;45044;41.572;24.730;2022-09-17T00:15:41;90823.88;;;14.85;100.00
59274;BME280;45044;41.572;24.730;2022-09-17T00:18:08;90821.50;;;14.91;100.00
59274;BME280;45044;41.572;24.730;2022-09-17T00:20:43;90812.75;;;14.74;100.00
59274;BME280;45044;41.572;24.730;2022-09-17T00:23:11;90820.56;;;14.98;100.00
59274;BME280;45044;41.572;24.730;2022-09-17T00:25:40;90822.56;;;14.94;100.00
59274;BME280;45044;41.572;24.730;2022-09-17T00:28:07;90824.06;;;14.95;100.00
59274;BME280;45044;41.572;24.730;2022-09-17T00:30:34;90810.91;;;14.91;100.00
59274;BME280;45044;41.572;24.730;2022-09-17T00:33:00;90817.38;;;14.90;100.00
59274;BME280;45044;41.572;24.730;2022-09-17T00:35:27;90815.03;;;15.09;100.00
59274;BME280;45044;41.572;24.730;2022-09-17T00:37:54;90809.09;;;14.88;100.00
59274;BME280;45044;41.572;24.730;2022-09-17T00:40:20;90813.22;;;14.89;100.00
59274;BME280;45044;41.572;24.730;2022-09-17T00:42:47;90811.25;;;14.36;100.00
59274;BME280;45044;41.572;24.730;2022-09-17T00:45:14;90756.00;;;14.05;100.00
59274;BME280;45044;41.572;24.730;2022-09-17T00:47:44;90803.38;;;14.53;100.00
59274;BME280;45044;41.572;24.730;2022-09-17T00:50:17;90814.44;;;14.47;100.00
59274;BME280;45044;41.572;24.730;2022-09-17T00:52:48;90815.75;;;14.56;100.00
59274;BME280;45044;41.572;24.730;2022-09-17T00:55:51;90823.56;;;14.63;100.00
59274;BME280;45044;41.572;24.730;2022-09-17T00:58:21;90827.06;;;14.77;100.00
59274;BME280;45044;41.572;24.730;2022-09-17T01:00:48;90832.69;;;14.79;100.00
59274;BME280;45044;41.572;24.730;2022-09-17T01:03:15;90825.16;;;14.77;100.00
59274;BME280;45044;41.572;24.730;2022-09-17T01:05:53;90820.84;;;14.67;100.00
59274;BME280;45044;41.572;24.730;2022-09-17T01:13:55;90831.06;;;14.28;100.00
59274;BME280;45044;41.572;24.730;2022-09-17T01:28:05;90826.84;;;14.51;100.00
59274;BME280;45044;41.572;24.730;2022-09-17T01:42:10;90825.25;;;14.16;100.00
59274;BME280;45044;41.572;24.730;2022-09-17T01:47:38;90832.88;;;14.10;100.00
59274;BME280;45044;41.572;24.730;2022-09-17T01:50:15;90825.09;;;14.03;100.00
59274;BME280;45044;41.572;24.730;2022-09-17T01:52:44;90817.47;;;13.88;100.00
59274;BME280;45044;41.572;24.730;2022-09-17T01:55:15;90823.81;;;14.11;100.00
59274;BME280;45044;41.572;24.730;2022-09-17T01:57:55;90811.75;;;14.10;100.00
59274;BME280;45044;41.572;24.730;2022-09-17T02:00:24;90821.47;;;14.17;100.00
59274;BME280;45044;41.572;24.730;2022-09-17T02:03:08;90800.53;;;14.06;100.00
59274;BME280;45044;41.572;24.730;2022-09-17T02:05:43;90807.34;;;14.24;100.00
59274;BME280;45044;41.572;24.730;2022-09-17T02:08:23;90777.09;;;13.88;100.00
59274;BME280;45044;41.572;24.730;2022-09-17T02:11:08;90796.72;;;14.07;100.00
59274;BME280;45044;41.572;24.730;2022-09-17T02:14:11;90795.50;;;13.92;100.00
59274;BME280;45044;41.572;24.730;2022-09-17T02:16:45;90804.09;;;13.75;100.00
59274;BME280;45044;41.572;24.730;2022-09-17T02:19:23;90800.56;;;13.62;100.00
59274;BME280;45044;41.572;24.730;2022-09-17T02:24:26;90802.84;;;13.60;100.00
59274;BME280;45044;41.572;24.730;2022-09-17T02:26:58;90796.56;;;13.53;100.00
59274;BME280;45044;41.572;24.730;2022-09-17T02:29:37;90792.41;;;13.52;100.00
59274;BME280;45044;41.572;24.730;2022-09-17T02:32:04;90779.31;;;13.69;100.00
59274;BME280;45044;41.572;24.730;2022-09-17T02:34:31;90781.41;;;13.78;100.00
59274;BME280;45044;41.572;24.730;2022-09-17T02:36:59;90776.81;;;13.82;100.00
59274;BME280;45044;41.572;24.730;2022-09-17T02:39:26;90779.84;;;13.81;100.00
59274;BME280;45044;41.572;24.730;2022-09-17T02:56:29;90767.91;;;13.52;100.00
59274;BME280;45044;41.572;24.730;2022-09-17T02:59:29;90763.28;;;13.12;100.00
59274;BME280;45044;41.572;24.730;2022-09-17T03:02:24;90770.59;;;12.76;100.00
59274;BME280;45044;41.572;24.730;2022-09-17T03:04:53;90746.06;;;13.03;100.00
59274;BME280;45044;41.572;24.730;2022-09-17T03:07:22;90757.41;;;12.76;100.00
59274;BME280;45044;41.572;24.730;2022-09-17T03:09:49;90745.28;;;13.07;100.00
59274;BME280;45044;41.572;24.730;2022-09-17T03:12:16;90770.16;;;13.05;100.00
59274;BME280;45044;41.572;24.730;2022-09-17T03:14:43;90763.41;;;13.28;100.00
59274;BME280;45044;41.572;24.730;2022-09-17T03:17:10;90771.81;;;12.96;100.00
59274;BME280;45044;41.572;24.730;2022-09-17T03:19:37;90759.19;;;13.31;100.00
59274;BME280;45044;41.572;24.730;2022-09-17T03:22:04;90761.00;;;13.34;100.00
59274;BME280;45044;41.572;24.730;2022-09-17T03:24:30;90770.25;;;13.46;100.00
59274;BME280;45044;41.572;24.730;2022-09-17T03:26:57;90784.09;;;13.30;100.00
59274;BME280;45044;41.572;24.730;2022-09-17T03:29:24;90777.03;;;13.23;100.00
59274;BME280;45044;41.572;24.730;2022-09-17T03:31:51;90768.03;;;12.97;100.00
59274;BME280;45044;41.572;24.730;2022-09-17T03:34:17;90765.31;;;12.76;100.00
59274;BME280;45044;41.572;24.730;2022-09-17T03:36:44;90759.31;;;13.00;100.00
59274;BME280;45044;41.572;24.730;2022-09-17T03:39:11;90763.84;;;12.75;100.00
59274;BME280;45044;41.572;24.730;2022-09-17T03:41:38;90755.47;;;13.04;100.00
59274;BME280;45044;41.572;24.730;2022-09-17T03:44:05;90751.91;;;13.15;100.00
59274;BME280;45044;41.572;24.730;2022-09-17T03:46:32;90734.84;;;12.99;100.00
59274;BME280;45044;41.572;24.730;2022-09-17T03:48:59;90733.22;;;13.05;100.00
59274;BME280;45044;41.572;24.730;2022-09-17T03:51:26;90724.59;;;13.01;100.00
59274;BME280;45044;41.572;24.730;2022-09-17T03:53:53;90724.03;;;13.14;100.00
59274;BME280;45044;41.572;24.730;2022-09-17T03:56:19;90737.50;;;13.20;100.00
59274;BME280;45044;41.572;24.730;2022-09-17T03:58:46;90728.03;;;13.22;100.00
59274;BME280;45044;41.572;24.730;2022-09-17T04:01:13;90736.31;;;13.24;100.00
59274;BME280;45044;41.572;24.730;2022-09-17T04:03:40;90733.41;;;13.39;100.00
59274;BME280;45044;41.572;24.730;2022-09-17T04:06:07;90725.50;;;13.39;100.00
59274;BME280;45044;41.572;24.730;2022-09-17T04:08:34;90729.03;;;13.52;100.00
59274;BME280;45044;41.572;24.730;2022-09-17T04:11:02;90723.38;;;13.50;100.00
59274;BME280;45044;41.572;24.730;2022-09-17T04:13:28;90720.84;;;13.02;100.00
59274;BME280;45044;41.572;24.730;2022-09-17T04:15:55;90707.53;;;13.10;100.00
59274;BME280;45044;41.572;24.730;2022-09-17T04:18:22;90707.81;;;12.67;100.00
59274;BME280;45044;41.572;24.730;2022-09-17T04:20:49;90717.84;;;13.00;100.00
59274;BME280;45044;41.572;24.730;2022-09-17T04:23:15;90720.47;;;13.24;100.00
59274;BME280;45044;41.572;24.730;2022-09-17T04:25:42;90703.38;;;13.09;100.00
59274;BME280;45044;41.572;24.730;2022-09-17T04:28:09;90697.19;;;13.19;100.00
59274;BME280;45044;41.572;24.730;2022-09-17T04:30:35;90696.38;;;13.22;100.00
59274;BME280;45044;41.572;24.730;2022-09-17T04:33:02;90693.00;;;13.42;100.00
59274;BME280;45044;41.572;24.730;2022-09-17T04:35:29;90694.63;;;13.36;100.00
59274;BME280;45044;41.572;24.730;2022-09-17T04:37:56;90692.41;;;13.55;100.00
59274;BME280;45044;41.572;24.730;2022-09-17T04:40:25;90685.44;;;13.44;100.00
59274;BME280;45044;41.572;24.730;2022-09-17T04:42:56;90693.88;;;13.35;100.00
59274;BME280;45044;41.572;24.730;2022-09-17T04:45:25;90690.63;;;13.48;100.00
59274;BME280;45044;41.572;24.730;2022-09-17T04:47:51;90676.50;;;13.58;100.00
59274;BME280;45044;41.572;24.730;2022-09-17T04:50:19;90687.84;;;13.35;100.00
59274;BME280;45044;41.572;24.730;2022-09-17T04:52:46;90679.16;;;13.58;100.00
59274;BME280;45044;41.572;24.730;2022-09-17T04:55:14;90679.16;;;13.58;100.00
59274;BME280;45044;41.572;24.730;2022-09-17T04:57:52;90683.09;;;13.70;100.00
59274;BME280;45044;41.572;24.730;2022-09-17T05:00:20;90690.09;;;13.97;100.00
59274;BME280;45044;41.572;24.730;2022-09-17T05:02:50;90690.78;;;14.18;100.00
59274;BME280;45044;41.572;24.730;2022-09-17T05:05:18;90697.09;;;14.41;100.00
59274;BME280;45044;41.572;24.730;2022-09-17T05:07:46;90691.88;;;14.54;100.00
59274;BME280;45044;41.572;24.730;2022-09-17T05:10:15;90683.53;;;14.72;100.00
59274;BME280;45044;41.572;24.730;2022-09-17T05:12:53;90676.44;;;14.53;100.00
59274;BME280;45044;41.572;24.730;2022-09-17T05:15:21;90678.31;;;14.52;100.00
59274;BME280;45044;41.572;24.730;2022-09-17T05:17:48;90669.50;;;14.92;100.00
59274;BME280;45044;41.572;24.730;2022-09-17T05:20:15;90667.00;;;15.02;100.00
59274;BME280;45044;41.572;24.730;2022-09-17T05:22:47;90673.34;;;16.07;100.00
59274;BME280;45044;41.572;24.730;2022-09-17T05:25:16;90681.13;;;17.82;100.00
59274;BME280;45044;41.572;24.730;2022-09-17T05:27:43;90692.91;;;18.67;100.00
59274;BME280;45044;41.572;24.730;2022-09-17T05:30:11;90686.19;;;19.03;100.00
59274;BME280;45044;41.572;24.730;2022-09-17T05:32:38;90666.84;;;20.65;100.00
59274;BME280;45044;41.572;24.730;2022-09-17T05:35:07;90658.00;;;21.32;94.23
59274;BME280;45044;41.572;24.730;2022-09-17T05:37:35;90663.81;;;22.16;86.97
59274;BME280;45044;41.572;24.730;2022-09-17T05:40:03;90671.25;;;22.93;80.64
59274;BME280;45044;41.572;24.730;2022-09-17T05:42:32;90664.38;;;23.49;73.90
59274;BME280;45044;41.572;24.730;2022-09-17T05:44:59;90670.59;;;24.14;69.19
59274;BME280;45044;41.572;24.730;2022-09-17T05:47:26;90666.59;;;24.68;65.86
59274;BME280;45044;41.572;24.730;2022-09-17T05:49:52;90663.69;;;25.10;63.33
59274;BME280;45044;41.572;24.730;2022-09-17T05:52:19;90664.16;;;25.81;58.94
59274;BME280;45044;41.572;24.730;2022-09-17T05:54:46;90674.00;;;26.30;55.63
59274;BME280;45044;41.572;24.730;2022-09-17T05:57:13;90659.84;;;26.70;54.38
59274;BME280;45044;41.572;24.730;2022-09-17T05:59:41;90666.03;;;27.35;51.38
59274;BME280;45044;41.572;24.730;2022-09-17T06:02:11;90662.38;;;27.86;49.74
59274;BME280;45044;41.572;24.730;2022-09-17T06:04:39;90664.47;;;28.05;48.93
59274;BME280;45044;41.572;24.730;2022-09-17T06:07:06;90662.47;;;28.48;47.40
59274;BME280;45044;41.572;24.730;2022-09-17T06:09:35;90667.94;;;28.98;46.83
59274;BME280;45044;41.572;24.730;2022-09-17T06:12:06;90657.66;;;28.66;47.24
59274;BME280;45044;41.572;24.730;2022-09-17T06:14:33;90664.28;;;29.21;46.46
59274;BME280;45044;41.572;24.730;2022-09-17T06:17:00;90674.97;;;29.76;44.01
59274;BME280;45044;41.572;24.730;2022-09-17T06:19:27;90651.78;;;30.14;43.80
59274;BME280;45044;41.572;24.730;2022-09-17T06:21:54;90656.72;;;29.96;43.90
59274;BME280;45044;41.572;24.730;2022-09-17T06:24:21;90653.22;;;30.81;41.93
59274;BME280;45044;41.572;24.730;2022-09-17T06:26:47;90649.81;;;29.62;44.52
59274;BME280;45044;41.572;24.730;2022-09-17T06:29:14;90663.63;;;30.50;43.50
59274;BME280;45044;41.572;24.730;2022-09-17T06:31:41;90661.72;;;31.04;42.50
59274;BME280;45044;41.572;24.730;2022-09-17T06:34:10;90666.22;;;29.45;45.45
59274;BME280;45044;41.572;24.730;2022-09-17T06:36:37;90671.28;;;30.12;41.84
59274;BME280;45044;41.572;24.730;2022-09-17T06:39:04;90664.91;;;30.62;42.83
59274;BME280;45044;41.572;24.730;2022-09-17T06:41:31;90665.31;;;30.66;43.16
59274;BME280;45044;41.572;24.730;2022-09-17T06:43:58;90672.16;;;29.63;41.68
59274;BME280;45044;41.572;24.730;2022-09-17T06:46:26;90672.16;;;28.32;43.97
59274;BME280;45044;41.572;24.730;2022-09-17T06:48:52;90657.13;;;27.52;46.62
59274;BME280;45044;41.572;24.730;2022-09-17T06:51:19;90667.41;;;28.07;44.72
59274;BME280;45044;41.572;24.730;2022-09-17T06:53:48;90667.91;;;28.12;45.90
59274;BME280;45044;41.572;24.730;2022-09-17T06:56:14;90665.88;;;28.18;44.62
59274;BME280;45044;41.572;24.730;2022-09-17T06:58:41;90648.53;;;28.07;46.03
59274;BME280;45044;41.572;24.730;2022-09-17T07:01:10;90654.75;;;28.27;44.61
59274;BME280;45044;41.572;24.730;2022-09-17T07:03:37;90651.81;;;28.87;43.12
59274;BME280;45044;41.572;24.730;2022-09-17T07:06:07;90652.44;;;29.24;41.76
59274;BME280;45044;41.572;24.730;2022-09-17T07:08:35;90634.19;;;27.82;45.83
59274;BME280;45044;41.572;24.730;2022-09-17T07:11:03;90634.34;;;28.63;43.32
59274;BME280;45044;41.572;24.730;2022-09-17T07:13:29;90627.03;;;29.08;42.71
59274;BME280;45044;41.572;24.730;2022-09-17T07:15:58;90635.41;;;29.48;41.78
59274;BME280;45044;41.572;24.730;2022-09-17T07:18:26;90641.22;;;28.64;43.20
59274;BME280;45044;41.572;24.730;2022-09-17T07:23:22;90639.06;;;27.35;45.33
59274;BME280;45044;41.572;24.730;2022-09-17T07:26:00;90634.66;;;27.32;44.20
59274;BME280;45044;41.572;24.730;2022-09-17T07:28:27;90640.25;;;27.94;44.17
59274;BME280;45044;41.572;24.730;2022-09-17T07:30:55;90629.44;;;28.30;43.19
59274;BME280;45044;41.572;24.730;2022-09-17T07:33:25;90630.63;;;28.91;42.46
59274;BME280;45044;41.572;24.730;2022-09-17T07:36:00;90638.28;;;29.12;41.47
59274;BME280;45044;41.572;24.730;2022-09-17T07:38:28;90654.41;;;29.23;42.29
59274;BME280;45044;41.572;24.730;2022-09-17T07:41:04;90650.13;;;29.53;40.44
59274;BME280;45044;41.572;24.730;2022-09-17T07:43:33;90644.75;;;30.24;39.54
59274;BME280;45044;41.572;24.730;2022-09-17T07:46:02;90643.66;;;29.62;39.60
59274;BME280;45044;41.572;24.730;2022-09-17T07:48:29;90633.69;;;29.70;42.00
59274;BME280;45044;41.572;24.730;2022-09-17T07:50:57;90629.63;;;30.48;38.59
59274;BME280;45044;41.572;24.730;2022-09-17T07:53:24;90628.78;;;30.40;39.01
59274;BME280;45044;41.572;24.730;2022-09-17T07:55:58;90633.59;;;30.61;38.44
59274;BME280;45044;41.572;24.730;2022-09-17T07:58:33;90640.13;;;30.19;38.63
59274;BME280;45044;41.572;24.730;2022-09-17T08:01:07;90635.41;;;30.26;38.46
59274;BME280;45044;41.572;24.730;2022-09-17T08:03:35;90629.31;;;29.67;40.86
59274;BME280;45044;41.572;24.730;2022-09-17T08:08:33;90626.56;;;30.99;38.41
59274;BME280;45044;41.572;24.730;2022-09-17T08:11:06;90641.16;;;30.82;37.80
59274;BME280;45044;41.572;24.730;2022-09-17T08:13:33;90624.69;;;30.14;38.27
59274;BME280;45044;41.572;24.730;2022-09-17T08:16:06;90633.22;;;30.05;38.34
59274;BME280;45044;41.572;24.730;2022-09-17T08:18:33;90645.50;;;28.53;41.22
59274;BME280;45044;41.572;24.730;2022-09-17T08:21:03;90654.66;;;26.77;45.22
59274;BME280;45044;41.572;24.730;2022-09-17T08:23:30;90653.59;;;28.53;43.63
59274;BME280;45044;41.572;24.730;2022-09-17T08:25:59;90652.22;;;28.41;42.45
59274;BME280;45044;41.572;24.730;2022-09-17T08:28:30;90641.44;;;30.32;39.39
59274;BME280;45044;41.572;24.730;2022-09-17T08:31:02;90655.16;;;27.58;43.27
59274;BME280;45044;41.572;24.730;2022-09-17T08:33:34;90644.97;;;28.24;42.48
59274;BME280;45044;41.572;24.730;2022-09-17T08:36:01;90649.22;;;29.25;40.79
59274;BME280;45044;41.572;24.730;2022-09-17T08:38:30;90644.72;;;29.09;41.48
59274;BME280;45044;41.572;24.730;2022-09-17T08:41:14;90642.63;;;29.84;40.46
59274;BME280;45044;41.572;24.730;2022-09-17T08:46:15;90636.31;;;30.61;39.25
59274;BME280;45044;41.572;24.730;2022-09-17T08:54:16;90618.13;;;31.02;38.09
59274;BME280;45044;41.572;24.730;2022-09-17T08:56:50;90620.13;;;30.42;39.29
59274;BME280;45044;41.572;24.730;2022-09-17T09:05:22;90613.34;;;29.83;39.34
59274;BME280;45044;41.572;24.730;2022-09-17T09:07:56;90616.56;;;30.33;39.66
59274;BME280;45044;41.572;24.730;2022-09-17T09:10:29;90610.44;;;30.73;38.65
59274;BME280;45044;41.572;24.730;2022-09-17T09:12:59;90620.44;;;30.38;40.83
59274;BME280;45044;41.572;24.730;2022-09-17T09:17:53;90609.78;;;29.11;41.61
59274;BME280;45044;41.572;24.730;2022-09-17T09:20:34;90608.78;;;29.14;42.57
59274;BME280;45044;41.572;24.730;2022-09-17T09:23:18;90610.94;;;30.31;39.67
59274;BME280;45044;41.572;24.730;2022-09-17T09:33:50;90602.69;;;29.71;40.26
59274;BME280;45044;41.572;24.730;2022-09-17T09:36:18;90598.13;;;29.80;40.49
59274;BME280;45044;41.572;24.730;2022-09-17T09:38:54;90595.63;;;29.43;42.56
59274;BME280;45044;41.572;24.730;2022-09-17T09:41:31;90590.34;;;29.89;41.25
59274;BME280;45044;41.572;24.730;2022-09-17T09:44:11;90585.53;;;29.63;39.59
59274;BME280;45044;41.572;24.730;2022-09-17T09:57:34;90592.97;;;27.81;45.05
59274;BME280;45044;41.572;24.730;2022-09-17T10:02:52;90592.56;;;28.39;45.74
59274;BME280;45044;41.572;24.730;2022-09-17T10:05:22;90579.22;;;28.16;44.23
59274;BME280;45044;41.572;24.730;2022-09-17T10:07:49;90575.13;;;28.03;45.21
59274;BME280;45044;41.572;24.730;2022-09-17T10:10:16;90576.00;;;27.86;44.05
59274;BME280;45044;41.572;24.730;2022-09-17T10:12:43;90578.03;;;28.42;44.19
59274;BME280;45044;41.572;24.730;2022-09-17T10:15:30;90584.41;;;27.77;45.01
59274;BME280;45044;41.572;24.730;2022-09-17T10:18:29;90582.00;;;27.68;45.60
59274;BME280;45044;41.572;24.730;2022-09-17T10:20:58;90577.25;;;27.85;45.42
59274;BME280;45044;41.572;24.730;2022-09-17T10:23:28;90594.75;;;28.09;46.95
59274;BME280;45044;41.572;24.730;2022-09-17T10:25:55;90580.72;;;28.67;43.85
59274;BME280;45044;41.572;24.730;2022-09-17T10:28:45;90574.28;;;29.20;44.29
59274;BME280;45044;41.572;24.730;2022-09-17T10:31:14;90587.81;;;28.70;43.93
59274;BME280;45044;41.572;24.730;2022-09-17T10:33:58;90594.72;;;28.46;43.38
59274;BME280;45044;41.572;24.730;2022-09-17T10:36:39;90586.72;;;28.60;43.54
59274;BME280;45044;41.572;24.730;2022-09-17T10:41:56;90598.28;;;27.93;45.99
59274;BME280;45044;41.572;24.730;2022-09-17T10:44:29;90574.81;;;27.82;44.87
59274;BME280;45044;41.572;24.730;2022-09-17T10:49:58;90567.84;;;29.04;44.42
59274;BME280;45044;41.572;24.730;2022-09-17T10:52:35;90568.28;;;29.27;43.22
59274;BME280;45044;41.572;24.730;2022-09-17T10:58:08;90600.59;;;27.29;46.88
59274;BME280;45044;41.572;24.730;2022-09-17T11:03:29;90591.25;;;26.30;51.84
59274;BME280;45044;41.572;24.730;2022-09-17T11:06:24;90583.13;;;26.71;52.64
59274;BME280;45044;41.572;24.730;2022-09-17T11:12:00;90591.47;;;26.73;55.15
59274;BME280;45044;41.572;24.730;2022-09-17T11:14:59;90595.75;;;27.16;54.97
59274;BME280;45044;41.572;24.730;2022-09-17T11:28:09;90581.53;;;27.63;54.94
59274;BME280;45044;41.572;24.730;2022-09-17T11:36:02;90580.63;;;27.49;57.14
59274;BME280;45044;41.572;24.730;2022-09-17T11:38:39;90573.81;;;27.85;57.25
59274;BME280;45044;41.572;24.730;2022-09-17T11:41:16;90559.22;;;28.00;56.34
59274;BME280;45044;41.572;24.730;2022-09-17T11:44:08;90566.41;;;27.49;54.15
59274;BME280;45044;41.572;24.730;2022-09-17T11:46:50;90558.94;;;27.67;55.81
59274;BME280;45044;41.572;24.730;2022-09-17T11:52:05;90548.38;;;28.05;57.05
59274;BME280;45044;41.572;24.730;2022-09-17T11:54:42;90551.47;;;27.84;53.58
59274;BME280;45044;41.572;24.730;2022-09-17T11:57:15;90547.47;;;27.97;54.50
59274;BME280;45044;41.572;24.730;2022-09-17T11:59:52;90531.88;;;27.42;53.85
59274;BME280;45044;41.572;24.730;2022-09-17T12:07:44;90520.16;;;27.33;55.09
59274;BME280;45044;41.572;24.730;2022-09-17T12:10:38;90520.53;;;27.49;55.20
59274;BME280;45044;41.572;24.730;2022-09-17T12:15:47;90509.16;;;27.25;55.08
59274;BME280;45044;41.572;24.730;2022-09-17T12:21:01;90501.31;;;27.64;54.13
59274;BME280;45044;41.572;24.730;2022-09-17T12:23:43;90506.34;;;27.06;58.42
59274;BME280;45044;41.572;24.730;2022-09-17T12:34:19;90447.81;;;26.89;58.92
59274;BME280;45044;41.572;24.730;2022-09-17T12:37:07;90467.53;;;26.61;63.18
59274;BME280;45044;41.572;24.730;2022-09-17T12:58:15;90450.25;;;26.28;61.89
59274;BME280;45044;41.572;24.730;2022-09-17T13:00:52;90455.19;;;26.06;63.29
59274;BME280;45044;41.572;24.730;2022-09-17T13:03:32;90451.06;;;25.88;66.07
59274;BME280;45044;41.572;24.730;2022-09-17T13:14:59;90431.78;;;25.78;68.23
59274;BME280;45044;41.572;24.730;2022-09-17T13:20:30;90427.38;;;25.75;66.05
59274;BME280;45044;41.572;24.730;2022-09-17T13:22:59;90436.66;;;25.68;68.25
59274;BME280;45044;41.572;24.730;2022-09-17T13:25:26;90423.69;;;25.90;62.13
59274;BME280;45044;41.572;24.730;2022-09-17T13:28:09;90423.91;;;25.98;62.68
59274;BME280;45044;41.572;24.730;2022-09-17T13:31:00;90424.59;;;26.15;64.70
59274;BME280;45044;41.572;24.730;2022-09-17T13:33:48;90414.50;;;26.33;62.09
59274;BME280;45044;41.572;24.730;2022-09-17T13:36:37;90421.00;;;25.90;63.80
59274;BME280;45044;41.572;24.730;2022-09-17T13:39:08;90409.78;;;25.57;64.82
59274;BME280;45044;41.572;24.730;2022-09-17T13:41:38;90422.25;;;25.71;73.18
59274;BME280;45044;41.572;24.730;2022-09-17T13:44:08;90412.66;;;25.93;68.19
59274;BME280;45044;41.572;24.730;2022-09-17T13:46:37;90394.25;;;26.09;62.35
59274;BME280;45044;41.572;24.730;2022-09-17T13:49:12;90403.41;;;25.60;65.02
59274;BME280;45044;41.572;24.730;2022-09-17T13:54:08;90394.13;;;25.27;69.43
59274;BME280;45044;41.572;24.730;2022-09-17T13:56:39;90378.50;;;25.36;71.02
59274;BME280;45044;41.572;24.730;2022-09-17T13:59:12;90385.31;;;25.43;66.62
59274;BME280;45044;41.572;24.730;2022-09-17T14:10:00;90386.78;;;25.56;62.49
59274;BME280;45044;41.572;24.730;2022-09-17T14:21:11;90377.25;;;24.97;67.52
59274;BME280;45044;41.572;24.730;2022-09-17T14:23:53;90376.78;;;24.99;65.66
59274;BME280;45044;41.572;24.730;2022-09-17T14:26:30;90373.56;;;24.77;69.54
59274;BME280;45044;41.572;24.730;2022-09-17T14:29:24;90375.97;;;24.52;65.43
59274;BME280;45044;41.572;24.730;2022-09-17T14:31:56;90361.28;;;24.42;67.30
59274;BME280;45044;41.572;24.730;2022-09-17T14:34:24;90368.63;;;24.47;66.86
59274;BME280;45044;41.572;24.730;2022-09-17T14:36:52;90361.56;;;24.50;64.40
59274;BME280;45044;41.572;24.730;2022-09-17T14:39:27;90354.91;;;24.22;66.39
59274;BME280;45044;41.572;24.730;2022-09-17T14:41:54;90360.06;;;24.43;65.04
59274;BME280;45044;41.572;24.730;2022-09-17T14:44:24;90346.88;;;24.39;65.48
59274;BME280;45044;41.572;24.730;2022-09-17T14:46:58;90353.84;;;24.14;68.86
59274;BME280;45044;41.572;24.730;2022-09-17T14:49:29;90354.31;;;24.07;70.02
59274;BME280;45044;41.572;24.730;2022-09-17T14:51:58;90353.59;;;24.06;70.55
59274;BME280;45044;41.572;24.730;2022-09-17T14:54:28;90360.88;;;24.00;70.55
59274;BME280;45044;41.572;24.730;2022-09-17T15:02:40;90346.38;;;23.74;72.60
59274;BME280;45044;41.572;24.730;2022-09-17T15:05:33;90358.09;;;23.77;72.82
59274;BME280;45044;41.572;24.730;2022-09-17T15:10:31;90350.75;;;23.66;74.60
59274;BME280;45044;41.572;24.730;2022-09-17T15:12:58;90352.19;;;23.67;76.15
59274;BME280;45044;41.572;24.730;2022-09-17T15:15:27;90357.34;;;23.71;74.02
59274;BME280;45044;41.572;24.730;2022-09-17T15:17:54;90362.38;;;23.51;78.62
59274;BME280;45044;41.572;24.730;2022-09-17T15:20:28;90368.44;;;23.46;79.42
59274;BME280;45044;41.572;24.730;2022-09-17T15:23:08;90361.84;;;23.47;79.92
59274;BME280;45044;41.572;24.730;2022-09-17T15:25:39;90348.19;;;23.45;82.09
59274;BME280;45044;41.572;24.730;2022-09-17T15:28:34;90329.16;;;23.43;84.69
59274;BME280;45044;41.572;24.730;2022-09-17T15:31:03;90309.38;;;23.40;84.22
59274;BME280;45044;41.572;24.730;2022-09-17T15:36:21;90305.94;;;23.34;86.39
59274;BME280;45044;41.572;24.730;2022-09-17T15:38:49;90321.75;;;23.26;94.04
59274;BME280;45044;41.572;24.730;2022-09-17T15:41:35;90323.56;;;23.08;94.63
59274;BME280;45044;41.572;24.730;2022-09-17T15:44:14;90305.59;;;22.82;100.00
59274;BME280;45044;41.572;24.730;2022-09-17T15:47:33;90274.66;;;22.81;100.00
59274;BME280;45044;41.572;24.730;2022-09-17T15:50:18;90327.63;;;22.66;100.00
59274;BME280;45044;41.572;24.730;2022-09-17T15:52:47;90333.81;;;22.51;100.00
59274;BME280;45044;41.572;24.730;2022-09-17T15:55:43;90380.97;;;22.69;100.00
59274;BME280;45044;41.572;24.730;2022-09-17T16:08:47;90571.53;;;17.01;100.00
59274;BME280;45044;41.572;24.730;2022-09-17T16:11:15;90541.41;;;16.59;100.00
59274;BME280;45044;41.572;24.730;2022-09-17T16:13:45;90506.28;;;16.68;100.00
59274;BME280;45044;41.572;24.730;2022-09-17T16:16:14;90529.97;;;16.62;100.00
59274;BME280;45044;41.572;24.730;2022-09-17T16:18:42;90539.41;;;16.28;100.00
59274;BME280;45044;41.572;24.730;2022-09-17T16:21:10;90575.16;;;15.97;100.00
59274;BME280;45044;41.572;24.730;2022-09-17T16:23:37;90583.50;;;15.69;100.00
59274;BME280;45044;41.572;24.730;2022-09-17T16:26:04;90522.03;;;15.88;100.00
59274;BME280;45044;41.572;24.730;2022-09-17T16:28:32;90517.06;;;15.90;100.00
59274;BME280;45044;41.572;24.730;2022-09-17T16:30:59;90477.09;;;15.97;100.00
59274;BME280;45044;41.572;24.730;2022-09-17T16:33:25;90484.19;;;16.13;100.00
59274;BME280;45044;41.572;24.730;2022-09-17T16:35:56;90488.75;;;16.00;100.00
59274;BME280;45044;41.572;24.730;2022-09-17T16:38:24;90494.59;;;15.68;100.00
59274;BME280;45044;41.572;24.730;2022-09-17T16:40:51;90472.16;;;15.60;100.00
59274;BME280;45044;41.572;24.730;2022-09-17T16:43:18;90509.13;;;15.51;100.00